Flight Track Log - Related Links

Times and Time Zones

All times are in EDT time to prevent confusion due to time zone crossing. See the CES2394 flight status page for this flight to view local times or setup timezone preferences in your user account.

Time Position Orientation Groundspeed Altitude Reporting Facility
EDT Latitude Longitude Course Direction KTS MPH feet Rate Location/Type
Fri 07:39:00 AM 36.8464 107.3231 153° Southeast  Level Estimated
Fri 07:40:00 AM 36.7641 107.3737 154° Southeast  Level Estimated
Fri 07:41:00 AM 36.6819 107.4242 154° Southeast  Level Estimated
Fri 07:42:00 AM 36.5996 107.4745 154° Southeast  Level Estimated
Fri 07:43:00 AM 36.5173 107.5248 154° Southeast  Level Estimated
Fri 07:44:00 AM 36.4350 107.5750 154° Southeast  Level Estimated
Fri 07:45:00 AM 36.3526 107.6250 154° Southeast  Level Estimated
Fri 07:46:00 AM 36.2703 107.6750 154° Southeast  Level Estimated
Fri 07:47:00 AM 36.1879 107.7248 154° Southeast  Level Estimated
Fri 07:48:00 AM 36.1055 107.7745 154° Southeast  Level Estimated
Fri 07:49:00 AM 36.0231 107.8242 154° Southeast  Level Estimated
Fri 07:50:00 AM 35.9406 107.8737 154° Southeast  Level Estimated
Fri 07:51:00 AM 35.8582 107.9231 154° Southeast  Level Estimated
Fri 07:52:00 AM 35.7757 107.9724 154° Southeast  Level Estimated
Fri 07:53:00 AM 35.6932 108.0217 154° Southeast  Level Estimated
Fri 07:54:00 AM 35.6107 108.0708 154° Southeast  Level Estimated
Fri 07:55:00 AM 35.5281 108.1198 154° Southeast  Level Estimated
Fri 07:56:00 AM 35.4456 108.1687 154° Southeast  Level Estimated
Fri 07:57:00 AM 35.3630 108.2175 154° Southeast  Level Estimated
Fri 07:58:00 AM 35.2804 108.2663 154° Southeast  Level Estimated
Fri 07:59:00 AM 35.1978 108.3149 154° Southeast  Level Estimated
Fri 08:00:00 AM 35.1151 108.3634 154° Southeast  Level Estimated
Fri 08:01:00 AM 35.0325 108.4118 154° Southeast  Level Estimated
Fri 08:02:00 AM 34.9498 108.4601 154° Southeast  Level Estimated
Fri 08:03:00 AM 34.8671 108.5083 154° Southeast  Level Estimated
Fri 08:04:00 AM 34.7844 108.5565 154° Southeast  Level Estimated
Fri 08:05:00 AM 34.7016 108.6045 154° Southeast  Level Estimated
Fri 08:06:00 AM 34.6189 108.6524 155° Southeast  Level Estimated
Fri 08:07:00 AM 34.5361 108.7003 155° Southeast  Level Estimated
Fri 08:08:00 AM 34.4533 108.7480 155° Southeast  Level Estimated
Fri 08:09:00 AM 34.4471 108.7516 155° Southeast  Level Estimated
Fri 08:10:00 AM 34.4471 108.7516 121° Southeast  Level Estimated
Fri 08:11:00 AM 34.4471 108.7516 121° Southeast  Level Estimated
Fri 08:12:00 AM 34.4471 108.7516 121° Southeast  Level Estimated
Fri 08:13:00 AM 34.4471 108.7516 121° Southeast  Level Estimated
Fri 08:14:00 AM 34.4471 108.7516 121° Southeast  Level Estimated
Fri 08:15:00 AM 34.4471 108.7516 121° Southeast  Level Estimated
Fri 08:16:00 AM 34.4471 108.7516 121° Southeast  Level Estimated
Fri 08:17:00 AM 34.4471 108.7516 121° Southeast  Level Estimated
Fri 08:18:00 AM 34.4471 108.7516 121° Southeast  Level Estimated
Fri 08:19:00 AM 34.4471 108.7516 121° Southeast  Level Estimated
Fri 08:20:00 AM 34.4471 108.7516 121° Southeast  Level Estimated
Fri 08:21:00 AM 34.4471 108.7516 121° Southeast  Level Estimated
Fri 08:22:00 AM 34.4471 108.7516 121° Southeast  Level Estimated
Fri 08:23:00 AM 34.4471 108.7516 121° Southeast  Level Estimated
Fri 08:24:00 AM 34.4471 108.7516 121° Southeast  Level Estimated
Fri 08:25:00 AM 34.4471 108.7516 121° Southeast  Level Estimated
Fri 08:26:00 AM 34.4471 108.7516 121° Southeast  Level Estimated
Fri 08:27:00 AM 34.4471 108.7516 121° Southeast  Level Estimated
Fri 08:28:00 AM 34.4471 108.7516 121° Southeast  Level Estimated
Fri 08:29:00 AM 34.4471 108.7516 121° Southeast  Level Estimated
Fri 08:30:00 AM 34.4471 108.7516 121° Southeast  Level Estimated
Fri 08:31:00 AM 34.4471 108.7516 121° Southeast  Level Estimated
Fri 08:32:00 AM 34.4471 108.7516 121° Southeast  Level Estimated
Fri 08:33:00 AM 34.4471 108.7516 121° Southeast  Level Estimated
Fri 08:34:00 AM 34.4471 108.7516 121° Southeast  Level Estimated
Fri 08:35:00 AM 34.4471 108.7516 121° Southeast  Level Estimated
Fri 08:36:00 AM 34.4471 108.7516 121° Southeast  Level Estimated
Fri 08:37:00 AM 34.4471 108.7516 121° Southeast  Level Estimated
Fri 08:38:00 AM 34.4471 108.7516 121° Southeast  Level Estimated
Fri 08:39:00 AM 34.4471 108.7516 121° Southeast  Level Estimated
Fri 08:40:00 AM 34.4471 108.7516 121° Southeast  Level Estimated
Fri 08:41:00 AM 34.4471 108.7516 121° Southeast  Level Estimated
Fri 08:42:00 AM 34.4471 108.7516 121° Southeast  Level Estimated
Fri 08:43:00 AM 34.4471 108.7516 121° Southeast  Level Estimated
Fri 08:44:00 AM 34.4471 108.7516 121° Southeast  Level Estimated
Fri 08:45:00 AM 34.4471 108.7516 121° Southeast  Level Estimated
Fri 08:46:00 AM 34.4471 108.7516 121° Southeast  Level Estimated
Fri 08:47:00 AM 34.4471 108.7516 121° Southeast  Level Estimated
Fri 08:48:00 AM 34.4471 108.7516 121° Southeast  Level Estimated
Fri 08:49:00 AM 34.4471 108.7516 121° Southeast  Level Estimated
Fri 08:50:00 AM 34.4471 108.7516 121° Southeast  Level Estimated
Fri 08:51:00 AM 34.4471 108.7516 121° Southeast  Level Estimated
Fri 08:52:00 AM 34.4471 108.7516 121° Southeast  Level Estimated
Fri 08:53:00 AM 34.4471 108.7516 121° Southeast  Level Estimated
Fri 08:54:00 AM 34.4471 108.7516 121° Southeast  Level Estimated
Fri 08:55:00 AM 34.4471 108.7516 121° Southeast  Level Estimated
Fri 08:56:00 AM 34.4471 108.7516 121° Southeast  Level Estimated
Fri 08:57:00 AM 34.4471 108.7516 121° Southeast  Level Estimated
Fri 08:58:00 AM 34.4471 108.7516 121° Southeast  Level Estimated
Fri 08:59:00 AM 34.4471 108.7516 121° Southeast  Level Estimated
Fri 09:00:00 AM 34.4471 108.7516 121° Southeast  Level Estimated
Fri 09:01:00 AM 34.4471 108.7516 121° Southeast  Level Estimated
Fri 09:02:00 AM 34.4471 108.7516 121° Southeast  Level Estimated
Fri 09:03:00 AM 34.4471 108.7516 121° Southeast  Level Estimated
Fri 09:04:00 AM 34.4471 108.7516 121° Southeast  Level Estimated
Fri 09:05:00 AM 34.4471 108.7516 121° Southeast  Level Estimated

Login

Don't have an account? Register now (free) for customized features, flight alerts, and more!